Time;durP1;ratioP1;P1;durP2;ratioP2;P2;SDS_P1;SDS_P2;PMS_P1;PMS_P2;Temp;Humidity;BMP_temperature;BMP_pressure;BME280_temperature;BME280_humidity;BME280_pressure;Samples;Min_cycle;Max_cycle;Signal;HPM_P1;HPM_P2
2022/10/01 00:00:50;;;;;;;11.43;10.05;;;11.70;99.90;;;;;;4932302;29;20051;-73
2022/10/01 00:03:17;;;;;;;11.70;9.50;;;11.70;99.90;;;;;;4939411;29;20074;-73
2022/10/01 00:05:43;;;;;;;10.48;9.18;;;11.70;99.90;;;;;;4938769;29;20047;-73
2022/10/01 00:08:09;;;;;;;11.55;10.00;;;11.70;99.90;;;;;;4938643;29;20045;-73
2022/10/01 00:10:39;;;;;;;10.98;9.80;;;11.60;99.90;;;;;;4938647;29;20051;-73
2022/10/01 00:13:05;;;;;;;11.45;9.90;;;11.60;99.90;;;;;;4919598;29;20044;-73
2022/10/01 00:15:31;;;;;;;11.70;10.10;;;11.50;99.90;;;;;;4936939;29;20098;-73
2022/10/01 00:17:57;;;;;;;15.38;10.30;;;11.60;99.90;;;;;;4934481;28;20043;-73
2022/10/01 00:20:22;;;;;;;13.05;10.88;;;11.60;99.90;;;;;;4938489;29;20070;-73
2022/10/01 00:22:48;;;;;;;12.13;10.88;;;11.50;99.90;;;;;;4939038;29;20102;-73
2022/10/01 00:25:14;;;;;;;11.68;10.25;;;11.50;99.90;;;;;;4942025;29;20058;-73
2022/10/01 00:27:44;;;;;;;11.80;10.43;;;11.40;99.90;;;;;;4937988;28;20065;-73
2022/10/01 00:30:10;;;;;;;11.68;10.43;;;11.40;99.90;;;;;;4938689;29;20043;-73
2022/10/01 00:32:39;;;;;;;14.02;10.65;;;11.40;99.90;;;;;;4937889;29;20047;-73
2022/10/01 00:35:08;;;;;;;13.20;10.98;;;11.40;99.90;;;;;;4922678;29;20175;-73
2022/10/01 00:37:36;;;;;;;12.57;10.90;;;11.40;99.90;;;;;;4938255;29;20055;-73
2022/10/01 00:40:04;;;;;;;13.95;11.50;;;11.40;99.90;;;;;;4938490;28;20086;-73
2022/10/01 00:42:30;;;;;;;14.70;11.65;;;11.40;99.90;;;;;;4937512;29;20126;-73
2022/10/01 00:44:57;;;;;;;12.10;10.80;;;11.40;99.90;;;;;;4942750;29;20182;-73
2022/10/01 00:47:39;;;;;;;13.13;11.35;;;11.40;99.90;;;;;;4938003;28;20054;-73
2022/10/01 00:50:27;;;;;;;13.52;11.38;;;11.30;99.90;;;;;;4938698;29;20154;-73
2022/10/01 00:53:12;;;;;;;13.25;11.68;;;11.30;99.90;;;;;;4943038;29;20130;-73
2022/10/01 00:55:50;;;;;;;13.90;12.50;;;11.30;99.90;;;;;;4929288;28;20053;-73
2022/10/01 00:58:19;;;;;;;16.60;12.80;;;11.30;99.90;;;;;;4938243;29;20075;-73
2022/10/01 01:00:45;;;;;;;13.30;11.23;;;11.30;99.90;;;;;;4935018;29;20046;-73
2022/10/01 01:03:11;;;;;;;14.05;12.55;;;11.20;99.90;;;;;;4941241;29;20035;-73
2022/10/01 01:05:38;;;;;;;15.15;11.77;;;11.20;99.90;;;;;;4941548;28;20054;-73
2022/10/01 01:08:04;;;;;;;13.52;12.07;;;11.20;99.90;;;;;;4938136;29;20039;-73
2022/10/01 01:11:03;;;;;;;14.82;12.23;;;11.30;99.90;;;;;;4935529;29;20066;-73
2022/10/01 01:14:00;;;;;;;15.35;12.60;;;11.20;99.90;;;;;;4936292;28;20046;-73
2022/10/01 01:16:34;;;;;;;17.67;12.10;;;11.20;99.90;;;;;;4936835;29;20047;-73
2022/10/01 01:19:42;;;;;;;16.77;12.88;;;11.30;99.90;;;;;;4942018;29;20039;-73
2022/10/01 01:22:12;;;;;;;14.45;12.88;;;11.20;99.90;;;;;;4932749;29;20139;-73
2022/10/01 01:24:50;;;;;;;18.75;13.20;;;11.20;99.90;;;;;;4938545;29;20102;-73
2022/10/01 01:27:18;;;;;;;14.15;12.18;;;11.20;99.90;;;;;;4938742;28;20083;-73
2022/10/01 01:29:50;;;;;;;15.25;13.20;;;11.20;99.90;;;;;;4936544;28;20129;-73
2022/10/01 01:32:22;;;;;;;16.42;13.05;;;11.20;99.90;;;;;;4944799;29;20087;-73
2022/10/01 01:34:51;;;;;;;14.40;12.90;;;11.20;99.90;;;;;;4933431;29;20039;-73
2022/10/01 01:37:19;;;;;;;14.38;12.88;;;11.20;99.90;;;;;;4934885;29;20046;-73
2022/10/01 01:39:50;;;;;;;17.70;13.68;;;11.20;99.90;;;;;;4939533;29;20391;-73
2022/10/01 01:42:30;;;;;;;17.42;13.23;;;11.10;99.90;;;;;;4937002;29;20134;-73
2022/10/01 01:45:00;;;;;;;18.67;14.13;;;11.10;99.90;;;;;;4936537;28;20059;-73
2022/10/01 01:47:29;;;;;;;17.70;13.52;;;11.10;99.90;;;;;;4936188;29;20047;-73
2022/10/01 01:49:56;;;;;;;16.58;13.02;;;11.10;99.90;;;;;;4944277;29;20050;-73
2022/10/01 01:52:22;;;;;;;18.27;13.80;;;11.10;99.90;;;;;;4936850;29;20047;-73
2022/10/01 01:54:49;;;;;;;15.60;13.95;;;11.10;99.90;;;;;;4933668;28;20058;-73
2022/10/01 01:57:18;;;;;;;16.13;12.73;;;11.10;99.90;;;;;;4935482;29;20721;-73
2022/10/01 01:59:44;;;;;;;15.90;14.20;;;11.20;99.90;;;;;;4921476;29;20083;-73
2022/10/01 02:02:17;;;;;;;15.07;13.48;;;11.10;99.90;;;;;;4940153;29;20082;-73
2022/10/01 02:04:44;;;;;;;14.52;12.95;;;11.10;99.90;;;;;;4936319;28;20090;-73
2022/10/01 02:07:51;;;;;;;13.65;11.60;;;11.10;99.90;;;;;;4936670;29;20047;-73
2022/10/01 02:10:26;;;;;;;14.68;13.13;;;11.10;99.90;;;;;;4945589;29;20039;-73
2022/10/01 02:13:22;;;;;;;13.38;12.07;;;11.20;99.90;;;;;;4928945;29;20042;-73
2022/10/01 02:16:03;;;;;;;15.13;13.05;;;11.20;99.90;;;;;;4951408;28;20063;-73
2022/10/01 02:19:02;;;;;;;12.98;11.68;;;11.10;99.90;;;;;;4937365;29;20091;-73
2022/10/01 02:21:54;;;;;;;12.55;11.35;;;11.20;99.90;;;;;;4935261;29;20047;-73
2022/10/01 02:24:51;;;;;;;14.05;11.50;;;11.20;99.90;;;;;;4935263;29;20098;-73
2022/10/01 02:27:31;;;;;;;13.18;11.88;;;11.20;99.90;;;;;;4935199;29;20047;-73
2022/10/01 02:30:00;;;;;;;12.63;11.25;;;11.20;99.90;;;;;;4931115;29;20039;-73
2022/10/01 02:32:28;;;;;;;12.50;11.10;;;11.20;99.90;;;;;;4920085;29;20070;-73
2022/10/01 02:34:55;;;;;;;12.45;11.15;;;11.20;99.90;;;;;;4940694;29;20044;-73
2022/10/01 02:37:25;;;;;;;12.23;10.75;;;11.20;99.90;;;;;;4934492;29;20110;-73
2022/10/01 02:39:53;;;;;;;12.35;10.70;;;11.20;99.90;;;;;;4920709;29;20047;-73
2022/10/01 02:42:22;;;;;;;10.52;9.52;;;11.20;99.90;;;;;;4941127;29;20055;-74
2022/10/01 02:44:51;;;;;;;10.77;9.25;;;11.20;99.90;;;;;;4953575;28;20078;-74
2022/10/01 02:47:32;;;;;;;10.52;9.48;;;11.20;99.90;;;;;;4936480;29;20035;-74
2022/10/01 02:49:57;;;;;;;10.45;9.35;;;11.20;99.90;;;;;;4937136;29;20078;-73
2022/10/01 02:52:30;;;;;;;10.23;9.23;;;11.30;99.90;;;;;;4932182;29;20465;-74
2022/10/01 02:55:19;;;;;;;12.68;10.00;;;11.30;99.90;;;;;;4933396;28;20686;-74
2022/10/01 02:57:45;;;;;;;9.38;8.20;;;11.30;99.90;;;;;;4927429;29;20066;-74
2022/10/01 03:00:14;;;;;;;9.43;8.40;;;11.40;99.90;;;;;;4932182;29;20469;-74
2022/10/01 03:02:40;;;;;;;9.02;7.57;;;11.30;99.90;;;;;;4917528;29;20047;-74
2022/10/01 03:05:06;;;;;;;8.18;7.43;;;11.40;99.90;;;;;;4944993;28;20090;-74
2022/10/01 03:07:36;;;;;;;9.35;7.60;;;11.40;99.90;;;;;;4933883;29;20509;-74
2022/10/01 03:10:07;;;;;;;7.90;7.20;;;11.40;99.90;;;;;;4919712;29;20046;-74
2022/10/01 03:12:34;;;;;;;7.50;6.80;;;11.40;99.90;;;;;;4933643;28;20046;-74
2022/10/01 03:14:59;;;;;;;7.72;6.95;;;11.40;99.90;;;;;;4935035;29;20094;-74
2022/10/01 03:17:25;;;;;;;7.57;6.53;;;11.40;99.90;;;;;;4936905;29;20051;-74
2022/10/01 03:19:51;;;;;;;7.47;5.93;;;11.40;99.90;;;;;;4935820;29;20051;-74
2022/10/01 03:22:21;;;;;;;6.40;5.75;;;11.40;99.90;;;;;;4941682;29;20074;-74
2022/10/01 03:24:50;;;;;;;10.50;5.75;;;11.40;99.90;;;;;;4928287;29;20043;-74
2022/10/01 03:27:16;;;;;;;7.50;6.30;;;11.50;99.90;;;;;;4950480;28;20047;-74
2022/10/01 03:29:43;;;;;;;7.15;6.30;;;11.40;99.90;;;;;;4935553;29;20043;-74
2022/10/01 03:32:09;;;;;;;6.75;6.05;;;11.50;99.90;;;;;;4933634;29;20043;-74
2022/10/01 03:34:35;;;;;;;6.38;5.78;;;11.40;99.90;;;;;;4918994;28;20047;-73
2022/10/01 03:37:00;;;;;;;6.55;5.40;;;11.40;99.90;;;;;;4936056;29;20095;-73
2022/10/01 03:39:26;;;;;;;5.40;4.90;;;11.40;99.90;;;;;;4938117;29;20051;-73
2022/10/01 03:41:52;;;;;;;6.63;4.82;;;11.40;99.90;;;;;;4949677;28;20050;-73
2022/10/01 03:44:17;;;;;;;11.13;5.68;;;11.40;99.90;;;;;;4934617;29;20552;-74
2022/10/01 03:46:43;;;;;;;5.57;5.03;;;11.40;99.90;;;;;;4942297;29;20517;-73
2022/10/01 03:49:09;;;;;;;5.70;5.13;;;11.40;99.90;;;;;;4938298;29;20062;-74
2022/10/01 03:51:36;;;;;;;5.97;5.20;;;11.40;99.90;;;;;;4944352;28;20117;-74
2022/10/01 03:54:03;;;;;;;5.00;4.60;;;11.40;99.90;;;;;;4936105;28;20046;-74
2022/10/01 03:56:29;;;;;;;4.88;4.47;;;11.40;99.90;;;;;;4935755;29;20051;-74
2022/10/01 03:58:54;;;;;;;6.38;4.70;;;11.40;99.90;;;;;;4937229;29;20058;-74
2022/10/01 04:01:20;;;;;;;6.13;5.63;;;11.40;99.90;;;;;;4938362;29;20502;-74
2022/10/01 04:03:46;;;;;;;5.43;4.93;;;11.40;99.90;;;;;;4938217;28;20118;-74
2022/10/01 04:06:12;;;;;;;5.78;5.28;;;11.40;99.90;;;;;;4939389;29;20051;-74
2022/10/01 04:08:38;;;;;;;6.05;5.30;;;11.40;99.90;;;;;;4938335;29;20125;-74
2022/10/01 04:11:04;;;;;;;5.10;4.70;;;11.40;99.90;;;;;;4937910;29;20074;-74
2022/10/01 04:13:31;;;;;;;6.60;5.38;;;11.40;99.90;;;;;;4938466;29;20051;-74
2022/10/01 04:15:56;;;;;;;5.25;4.75;;;11.50;99.90;;;;;;4938551;29;20046;-74
2022/10/01 04:18:22;;;;;;;5.93;5.32;;;11.50;99.90;;;;;;4923239;29;20047;-74
2022/10/01 04:20:47;;;;;;;6.65;5.40;;;11.40;99.90;;;;;;4946276;29;20050;-74
2022/10/01 04:23:13;;;;;;;5.55;4.80;;;11.50;99.90;;;;;;4942194;29;20043;-74
2022/10/01 04:25:39;;;;;;;4.82;4.43;;;11.40;99.90;;;;;;4938530;28;20106;-74
2022/10/01 04:28:09;;;;;;;6.32;4.28;;;11.50;99.90;;;;;;4929209;29;20043;-74
2022/10/01 04:30:36;;;;;;;5.25;4.65;;;11.60;99.90;;;;;;4937886;28;20075;-74
2022/10/01 04:33:03;;;;;;;4.63;4.20;;;11.50;99.90;;;;;;4937541;29;20090;-74
2022/10/01 04:35:29;;;;;;;5.88;4.65;;;11.50;99.90;;;;;;4934546;29;20047;-74
2022/10/01 04:38:00;;;;;;;5.18;4.68;;;11.50;99.90;;;;;;4917352;29;20067;-74
2022/10/01 04:40:26;;;;;;;6.45;4.00;;;11.50;99.90;;;;;;4940427;29;20055;-74
2022/10/01 04:42:52;;;;;;;6.78;4.65;;;11.50;99.90;;;;;;4937976;29;20047;-74
2022/10/01 04:45:17;;;;;;;4.82;4.38;;;11.50;99.90;;;;;;4938352;29;20058;-74
2022/10/01 04:47:48;;;;;;;5.30;4.38;;;11.50;99.90;;;;;;4937969;29;20418;-74
2022/10/01 04:50:15;;;;;;;4.40;4.00;;;11.50;99.90;;;;;;4923401;29;20080;-74
2022/10/01 04:52:40;;;;;;;4.78;4.38;;;11.60;99.90;;;;;;4924296;29;20039;-74
2022/10/01 04:55:07;;;;;;;4.65;4.25;;;11.60;99.90;;;;;;4937572;29;20047;-74
2022/10/01 04:57:34;;;;;;;5.90;3.83;;;11.60;99.90;;;;;;4937693;29;20130;-74
2022/10/01 05:00:00;;;;;;;4.35;4.00;;;11.60;99.90;;;;;;4930546;29;20051;-74
2022/10/01 05:02:28;;;;;;;4.82;4.38;;;11.60;99.90;;;;;;4937842;29;20051;-74
2022/10/01 05:04:53;;;;;;;4.50;4.10;;;11.70;99.90;;;;;;4939511;29;20047;-74
2022/10/01 05:07:19;;;;;;;4.65;3.90;;;11.70;99.90;;;;;;4960591;28;20047;-74
2022/10/01 05:09:44;;;;;;;5.93;4.20;;;11.70;99.90;;;;;;4943511;29;20390;-74
2022/10/01 05:12:10;;;;;;;4.60;4.15;;;11.70;99.90;;;;;;4934555;28;20093;-74
2022/10/01 05:14:35;;;;;;;5.38;4.10;;;11.70;99.90;;;;;;4935975;28;20109;-74
2022/10/01 05:17:01;;;;;;;5.40;4.63;;;11.80;99.90;;;;;;4940010;29;20047;-74
2022/10/01 05:19:28;;;;;;;4.90;4.35;;;11.80;99.90;;;;;;4936057;29;20058;-74
2022/10/01 05:21:54;;;;;;;5.38;4.90;;;11.80;99.90;;;;;;4935291;28;20047;-74
2022/10/01 05:24:20;;;;;;;4.78;4.38;;;11.80;99.90;;;;;;4938703;29;20051;-74
2022/10/01 05:26:45;;;;;;;4.63;4.22;;;11.80;99.90;;;;;;4937644;28;20059;-74
2022/10/01 05:29:14;;;;;;;4.95;4.25;;;11.90;99.90;;;;;;4931665;28;20039;-74
2022/10/01 05:31:43;;;;;;;5.00;4.60;;;11.90;99.90;;;;;;4936659;29;20053;-74
2022/10/01 05:34:08;;;;;;;7.18;4.43;;;11.90;99.90;;;;;;4937187;29;20043;-74
2022/10/01 05:36:34;;;;;;;4.75;4.35;;;11.90;99.90;;;;;;4934237;29;20056;-74
2022/10/01 05:39:00;;;;;;;5.43;4.93;;;12.00;99.90;;;;;;4953888;28;20062;-74
2022/10/01 05:41:26;;;;;;;5.30;4.80;;;12.00;99.90;;;;;;4936197;29;20497;-74
2022/10/01 05:43:52;;;;;;;6.10;5.47;;;12.00;99.90;;;;;;4939397;29;20125;-74
2022/10/01 05:46:18;;;;;;;6.43;5.30;;;12.00;99.90;;;;;;4937011;29;20134;-73
2022/10/01 05:48:44;;;;;;;6.22;5.63;;;12.00;99.90;;;;;;4933845;29;20047;-73
2022/10/01 05:51:10;;;;;;;6.50;5.90;;;12.10;99.90;;;;;;4936912;29;20229;-74
2022/10/01 05:53:39;;;;;;;6.80;6.10;;;12.10;99.90;;;;;;4934227;29;20126;-74
2022/10/01 05:56:05;;;;;;;6.85;6.15;;;12.10;99.90;;;;;;4936055;29;20067;-74
2022/10/01 05:58:31;;;;;;;8.45;6.75;;;12.10;99.90;;;;;;4935032;28;20043;-74
2022/10/01 06:00:57;;;;;;;8.65;6.70;;;12.20;99.90;;;;;;4939223;29;20047;-74
2022/10/01 06:03:23;;;;;;;9.75;6.93;;;12.10;99.90;;;;;;4934811;29;20043;-75
2022/10/01 06:05:48;;;;;;;8.65;7.63;;;12.20;99.90;;;;;;4936371;28;20520;-75
2022/10/01 06:08:14;;;;;;;9.23;7.45;;;12.20;99.90;;;;;;4940194;29;20047;-75
2022/10/01 06:10:40;;;;;;;8.95;8.07;;;12.20;99.90;;;;;;4934731;29;20066;-75
2022/10/01 06:13:06;;;;;;;8.15;7.45;;;12.30;99.90;;;;;;4917934;29;20031;-75
2022/10/01 06:15:37;;;;;;;8.90;7.50;;;12.30;99.90;;;;;;4917602;29;20043;-74
2022/10/01 06:18:05;;;;;;;10.30;8.23;;;12.30;99.90;;;;;;4938447;29;20094;-74
2022/10/01 06:20:30;;;;;;;8.90;8.05;;;12.30;99.90;;;;;;4937504;28;20043;-74
2022/10/01 06:22:57;;;;;;;10.15;9.10;;;12.40;99.90;;;;;;4930596;29;20196;-74
2022/10/01 06:25:24;;;;;;;9.65;8.65;;;12.40;99.90;;;;;;4939519;29;20043;-75
2022/10/01 06:27:56;;;;;;;11.13;9.00;;;12.40;99.90;;;;;;4927705;29;20043;-74
2022/10/01 06:30:27;;;;;;;10.63;9.52;;;12.50;99.90;;;;;;4952165;28;20051;-74
2022/10/01 06:33:12;;;;;;;9.95;9.05;;;12.50;99.90;;;;;;4945474;28;20043;-75
2022/10/01 06:35:47;;;;;;;9.85;8.95;;;12.50;99.90;;;;;;4920405;29;20039;-75
2022/10/01 06:38:13;;;;;;;9.73;8.68;;;12.60;99.90;;;;;;4935013;29;20051;-75
2022/10/01 06:40:39;;;;;;;10.52;8.70;;;12.60;99.90;;;;;;4935699;29;20058;-75
2022/10/01 06:43:07;;;;;;;11.52;9.38;;;12.60;99.90;;;;;;4924720;29;20031;-74
2022/10/01 06:45:37;;;;;;;9.85;8.85;;;12.60;99.90;;;;;;4936086;29;20504;-75
2022/10/01 06:48:03;;;;;;;11.13;9.20;;;12.60;99.90;;;;;;4935958;29;20126;-74
2022/10/01 06:50:33;;;;;;;13.68;9.80;;;12.60;99.90;;;;;;4936086;29;20046;-74
2022/10/01 06:53:00;;;;;;;9.98;8.98;;;12.60;99.90;;;;;;4948801;29;20130;-75
2022/10/01 06:55:29;;;;;;;10.73;8.85;;;12.70;99.90;;;;;;4920168;29;20127;-75
2022/10/01 06:58:02;;;;;;;13.77;9.35;;;12.70;99.90;;;;;;4935907;29;20243;-76
2022/10/01 07:00:30;;;;;;;12.90;10.20;;;12.70;99.90;;;;;;4932298;29;20058;-75
2022/10/01 07:02:55;;;;;;;10.68;9.00;;;12.80;99.90;;;;;;4930282;28;20726;-75
2022/10/01 07:05:22;;;;;;;14.63;9.10;;;12.90;99.90;;;;;;4934823;29;20126;-76
2022/10/01 07:07:48;;;;;;;12.25;9.32;;;12.80;99.90;;;;;;4920301;28;20079;-75
2022/10/01 07:10:15;;;;;;;15.57;9.30;;;12.90;99.90;;;;;;4919254;29;20079;-75
2022/10/01 07:12:41;;;;;;;10.15;8.65;;;13.00;99.90;;;;;;4941082;29;20047;-75
2022/10/01 07:15:08;;;;;;;10.48;8.10;;;13.10;99.90;;;;;;4934676;29;20129;-75
2022/10/01 07:17:41;;;;;;;13.93;9.23;;;13.10;99.90;;;;;;4935632;28;20039;-75
2022/10/01 07:20:07;;;;;;;13.85;8.52;;;13.20;99.90;;;;;;4936444;29;20126;-75
2022/10/01 07:22:32;;;;;;;11.80;7.30;;;13.20;99.90;;;;;;4935486;29;20042;-76
2022/10/01 07:24:58;;;;;;;12.15;7.93;;;13.30;99.90;;;;;;4932581;29;20098;-75
2022/10/01 07:27:23;;;;;;;9.65;6.90;;;13.30;99.90;;;;;;4937405;29;20051;-76
2022/10/01 07:29:49;;;;;;;8.73;6.80;;;13.30;99.90;;;;;;4947120;28;20042;-76
2022/10/01 07:32:15;;;;;;;11.43;6.93;;;13.30;99.90;;;;;;4934710;29;20042;-75
2022/10/01 07:34:40;;;;;;;10.90;6.68;;;13.30;99.90;;;;;;4944686;29;20047;-75
2022/10/01 07:37:07;;;;;;;12.20;6.65;;;13.30;99.90;;;;;;4937673;29;20477;-76
2022/10/01 07:39:33;;;;;;;12.02;6.60;;;13.30;99.90;;;;;;4939527;28;20082;-76
2022/10/01 07:41:58;;;;;;;13.15;7.18;;;13.40;99.90;;;;;;4943729;29;20043;-76
2022/10/01 07:44:26;;;;;;;13.07;6.93;;;13.40;99.90;;;;;;4943066;29;20098;-75
2022/10/01 07:46:52;;;;;;;14.30;7.80;;;13.40;99.90;;;;;;4941896;29;20109;-77
2022/10/01 07:49:19;;;;;;;11.35;6.40;;;13.50;99.90;;;;;;4939484;29;20048;-77
2022/10/01 07:51:45;;;;;;;11.93;6.88;;;13.50;99.90;;;;;;4938836;29;20044;-74
2022/10/01 07:54:11;;;;;;;17.65;7.72;;;13.50;99.90;;;;;;4949202;29;20057;-74
2022/10/01 07:56:37;;;;;;;16.13;8.88;;;13.50;99.90;;;;;;4936855;29;20063;-74
2022/10/01 07:59:03;;;;;;;13.38;8.77;;;13.60;99.90;;;;;;4938861;29;20047;-75
2022/10/01 08:01:30;;;;;;;15.80;7.32;;;13.60;99.90;;;;;;4923971;29;20090;-75
2022/10/01 08:03:56;;;;;;;17.83;7.70;;;13.70;99.90;;;;;;4945084;29;20474;-74
2022/10/01 08:06:21;;;;;;;19.48;6.82;;;13.80;99.90;;;;;;4949298;29;20118;-75
2022/10/01 08:08:47;;;;;;;11.75;6.75;;;13.80;99.90;;;;;;4944971;29;20100;-75
2022/10/01 08:11:16;;;;;;;17.45;7.10;;;14.00;99.90;;;;;;4949666;28;20048;-75
2022/10/01 08:13:44;;;;;;;16.10;4.70;;;14.10;99.90;;;;;;4953345;28;20094;-74
2022/10/01 08:16:10;;;;;;;12.77;4.32;;;14.20;99.90;;;;;;4937578;29;20047;-75
2022/10/01 08:18:37;;;;;;;12.32;3.67;;;14.20;99.90;;;;;;4929603;29;20150;-74
2022/10/01 08:21:03;;;;;;;14.25;3.67;;;14.30;99.90;;;;;;4948075;28;20046;-74
2022/10/01 08:23:32;;;;;;;10.77;3.78;;;14.30;99.90;;;;;;4927374;29;20137;-74
2022/10/01 08:26:05;;;;;;;14.18;3.45;;;14.50;99.90;;;;;;4938680;29;20051;-74
2022/10/01 08:28:32;;;;;;;11.75;3.72;;;14.50;99.90;;;;;;4927800;29;20131;-74
2022/10/01 08:30:58;;;;;;;14.18;4.95;;;14.60;99.90;;;;;;4956832;28;20051;-75
2022/10/01 08:33:23;;;;;;;12.27;4.53;;;14.70;99.90;;;;;;4938793;29;20042;-74
2022/10/01 08:35:49;;;;;;;16.02;3.80;;;14.80;99.90;;;;;;4942333;29;20047;-74
2022/10/01 08:38:16;;;;;;;16.83;3.95;;;14.80;99.90;;;;;;4938968;29;20122;-74
2022/10/01 08:40:46;;;;;;;17.88;3.85;;;14.90;99.90;;;;;;4934791;29;20517;-75
2022/10/01 08:43:26;;;;;;;11.25;2.80;;;14.90;99.90;;;;;;4934739;29;20055;-74
2022/10/01 08:45:58;;;;;;;13.00;2.88;;;15.00;99.90;;;;;;4933360;29;20066;-75
2022/10/01 08:48:36;;;;;;;10.98;2.60;;;15.20;99.90;;;;;;4940228;29;20047;-74
2022/10/01 08:51:17;;;;;;;12.98;2.58;;;15.20;99.90;;;;;;4947789;28;20039;-75
2022/10/01 08:54:27;;;;;;;14.63;2.85;;;15.20;99.90;;;;;;4937860;29;20078;-76
2022/10/01 08:56:56;;;;;;;9.93;2.70;;;15.30;99.90;;;;;;4934360;28;20057;-76
2022/10/01 08:59:28;;;;;;;12.57;2.80;;;15.30;99.90;;;;;;4953815;29;20051;-76
2022/10/01 09:01:55;;;;;;;7.07;2.40;;;15.20;99.90;;;;;;4946709;28;20081;-75
2022/10/01 09:04:21;;;;;;;10.90;2.53;;;15.10;99.90;;;;;;4931959;29;20090;-75
2022/10/01 09:06:55;;;;;;;9.10;2.58;;;15.00;99.90;;;;;;4957397;28;20043;-74
2022/10/01 09:09:24;;;;;;;13.57;2.72;;;14.90;99.90;;;;;;4938210;29;20043;-75
2022/10/01 09:11:52;;;;;;;7.15;1.90;;;14.90;99.90;;;;;;4920360;29;20040;-75
2022/10/01 09:14:46;;;;;;;10.02;2.15;;;14.90;99.90;;;;;;4936838;29;20057;-74
2022/10/01 09:17:29;;;;;;;11.65;2.50;;;14.90;99.90;;;;;;4936418;29;20457;-73
2022/10/01 09:19:55;;;;;;;;;;;14.80;99.90;;;;;;4936696;29;20098;-77
2022/10/01 09:22:30;;;;;;;9.02;2.20;;;14.80;99.90;;;;;;4936779;29;19922;-77
2022/10/01 09:25:13;;;;;;;8.63;2.10;;;14.70;99.90;;;;;;4918209;28;20051;-75
2022/10/01 09:27:39;;;;;;;6.85;2.08;;;14.70;99.90;;;;;;4921750;28;20102;-78
2022/10/01 09:30:23;;;;;;;10.27;2.20;;;14.70;99.90;;;;;;4941311;29;20043;-80
2022/10/01 09:32:56;;;;;;;8.55;2.53;;;14.90;99.90;;;;;;4932816;28;20046;-78
2022/10/01 09:35:50;;;;;;;7.50;2.10;;;15.00;99.90;;;;;;4932021;29;20055;-76
2022/10/01 09:39:00;;;;;;;8.65;2.45;;;15.10;99.90;;;;;;4934185;28;20043;-79
2022/10/01 09:41:26;;;;;;;6.65;2.05;;;15.30;99.90;;;;;;4944627;28;21758;-77
2022/10/01 09:43:51;;;;;;;6.63;1.98;;;15.40;99.90;;;;;;4929812;28;20055;-77
2022/10/01 09:46:18;;;;;;;6.80;1.45;;;15.60;99.90;;;;;;4932881;28;20073;-79
2022/10/01 09:49:12;;;;;;;5.72;1.70;;;15.60;99.90;;;;;;4930625;29;20122;-78
2022/10/01 09:51:44;;;;;;;4.28;1.27;;;15.70;99.90;;;;;;4934776;28;20486;-76
2022/10/01 09:54:14;;;;;;;;;;;15.80;99.90;;;;;;4917649;29;20051;-77
2022/10/01 09:56:46;;;;;;;5.07;1.10;;;15.90;99.90;;;;;;4933319;28;20027;-76
2022/10/01 09:59:47;;;;;;;5.85;1.35;;;15.90;99.90;;;;;;4912147;28;20050;-76
2022/10/01 10:02:25;;;;;;;8.18;1.42;;;16.10;99.90;;;;;;4933877;28;20487;-77
2022/10/01 10:05:05;;;;;;;4.88;1.50;;;16.30;99.90;;;;;;4927620;28;20046;-77
2022/10/01 10:07:33;;;;;;;5.38;1.30;;;16.30;99.90;;;;;;4919491;28;20557;-77
2022/10/01 10:10:34;;;;;;;4.90;1.42;;;16.30;99.90;;;;;;4933885;28;20047;-77
2022/10/01 10:13:09;;;;;;;5.45;1.30;;;16.30;99.90;;;;;;4903610;29;20045;-77
2022/10/01 10:15:40;;;;;;;6.47;1.50;;;16.40;99.90;;;;;;4934761;28;20062;-76
2022/10/01 10:18:16;;;;;;;5.85;1.27;;;16.50;99.90;;;;;;4915730;28;20063;-76
2022/10/01 10:20:51;;;;;;;5.20;1.48;;;16.60;99.90;;;;;;4920357;28;20101;-77
2022/10/01 10:23:19;;;;;;;9.40;1.88;;;16.80;99.90;;;;;;4936921;29;20047;-79
2022/10/01 10:25:54;;;;;;;7.30;1.88;;;16.90;99.90;;;;;;4938392;28;20228;-76
2022/10/01 10:28:22;;;;;;;6.07;1.67;;;16.90;99.90;;;;;;4928360;28;20178;-76
2022/10/01 10:30:51;;;;;;;7.93;2.00;;;16.80;99.90;;;;;;4931223;28;20078;-77
2022/10/01 10:33:20;;;;;;;11.32;2.08;;;16.80;99.90;;;;;;4934063;28;20126;-76
2022/10/01 10:35:56;;;;;;;11.50;2.33;;;16.60;99.90;;;;;;4931258;28;20142;-76
2022/10/01 10:38:28;;;;;;;7.75;1.70;;;16.40;99.90;;;;;;4929968;28;20046;-76
2022/10/01 10:40:56;;;;;;;10.95;2.15;;;16.00;99.90;;;;;;4956850;28;20413;-76
2022/10/01 10:43:26;;;;;;;7.03;1.65;;;15.80;99.90;;;;;;4943132;29;20047;-75
2022/10/01 10:45:55;;;;;;;6.20;1.55;;;15.50;99.90;;;;;;4943103;28;20057;-75
2022/10/01 10:48:25;;;;;;;6.90;1.40;;;15.30;99.90;;;;;;4938414;28;20126;-75
2022/10/01 10:50:59;;;;;;;10.57;1.85;;;15.10;99.90;;;;;;4941406;28;20553;-75
2022/10/01 10:53:27;;;;;;;10.20;1.90;;;14.90;99.90;;;;;;4930038;29;20054;-75
2022/10/01 10:56:00;;;;;;;7.68;1.48;;;14.70;99.90;;;;;;4924476;28;20073;-75
2022/10/01 10:58:28;;;;;;;8.27;1.60;;;14.60;99.90;;;;;;4944034;28;20073;-75
2022/10/01 11:01:08;;;;;;;9.80;1.90;;;14.50;99.90;;;;;;4933390;28;20054;-75
2022/10/01 11:03:36;;;;;;;7.95;1.65;;;14.30;99.90;;;;;;4927231;28;20134;-75
2022/10/01 11:06:10;;;;;;;5.75;1.30;;;14.20;99.90;;;;;;4916088;28;20059;-75
2022/10/01 11:08:37;;;;;;;7.55;1.55;;;14.20;99.90;;;;;;4931036;28;20047;-75
2022/10/01 11:11:34;;;;;;;8.57;1.73;;;14.10;99.90;;;;;;4964567;23;20081;-74
2022/10/01 11:14:31;;;;;;;8.43;1.50;;;14.10;99.90;;;;;;4969541;28;20053;-74
2022/10/01 11:17:17;;;;;;;7.70;2.00;;;14.00;99.90;;;;;;4966788;28;20047;-75
2022/10/01 11:20:14;;;;;;;5.97;1.45;;;13.90;99.90;;;;;;4960420;28;21217;-73
2022/10/01 11:23:08;;;;;;;7.25;1.52;;;14.10;99.90;;;;;;4962500;28;20031;-74
2022/10/01 11:26:10;;;;;;;8.57;1.77;;;14.20;99.90;;;;;;4964685;28;20039;-74
2022/10/01 11:29:00;;;;;;;6.53;1.63;;;14.30;99.90;;;;;;4947558;28;20089;-74
2022/10/01 11:31:46;;;;;;;17.58;2.85;;;14.20;99.90;;;;;;4951189;28;20047;-74
2022/10/01 11:34:24;;;;;;;244.45;24.75;;;14.10;99.90;;;;;;4950326;28;20042;-74
2022/10/01 11:37:04;;;;;;;41.05;4.95;;;14.10;99.90;;;;;;4965193;28;20034;-78
2022/10/01 11:39:33;;;;;;;9.02;1.48;;;14.00;99.90;;;;;;4971667;28;20038;-77
2022/10/01 11:42:09;;;;;;;5.97;1.40;;;14.10;99.90;;;;;;4963172;28;20073;-75
2022/10/01 11:44:42;;;;;;;7.88;1.38;;;14.10;99.90;;;;;;4949171;28;20046;-75
2022/10/01 11:47:36;;;;;;;7.70;1.58;;;14.20;99.90;;;;;;4933122;28;20142;-78
2022/10/01 11:50:12;;;;;;;9.15;1.75;;;14.40;99.90;;;;;;4953261;28;20097;-78
2022/10/01 11:52:54;;;;;;;27.38;3.25;;;14.70;99.90;;;;;;4961403;28;20089;-78
2022/10/01 11:58:52;;;;;;;9.75;1.60;;;15.50;99.90;;;;;;4951216;28;20042;-78
2022/10/01 12:01:46;;;;;;;6.32;1.50;;;15.90;99.90;;;;;;4949658;28;20047;-77
2022/10/01 12:04:27;;;;;;;10.60;1.95;;;16.30;99.90;;;;;;4950033;28;20039;-77
2022/10/01 12:07:04;;;;;;;10.05;2.17;;;16.60;99.90;;;;;;4950047;28;20043;-78
2022/10/01 12:09:38;;;;;;;21.10;2.55;;;16.80;99.90;;;;;;4942011;28;20035;-76
2022/10/01 12:12:09;;;;;;;11.95;2.15;;;17.10;99.90;;;;;;4963066;28;20130;-81
2022/10/01 12:15:12;;;;;;;8.88;1.88;;;17.20;99.90;;;;;;4949618;28;20046;-77
2022/10/01 12:17:50;;;;;;;9.93;2.35;;;17.30;99.90;;;;;;4964815;28;20058;-80
2022/10/01 12:20:54;;;;;;;12.55;2.17;;;17.10;99.90;;;;;;4949703;28;20073;-79
2022/10/01 12:23:25;;;;;;;11.45;2.50;;;16.80;99.90;;;;;;4966318;28;20066;-79
2022/10/01 12:26:11;;;;;;;11.50;1.95;;;16.70;99.90;;;;;;4954988;28;20053;-76
2022/10/01 12:28:48;;;;;;;13.35;2.55;;;16.40;99.90;;;;;;4952734;28;20513;-78
2022/10/01 12:31:23;;;;;;;13.43;2.53;;;16.10;99.90;;;;;;4953902;28;20049;-79
2022/10/01 12:34:50;;;;;;;11.48;2.38;;;16.10;99.90;;;;;;4966739;28;20098;-80
2022/10/01 12:37:57;;;;;;;16.83;2.78;;;16.30;99.90;;;;;;4890891;29;20150;-77
2022/10/01 12:40:58;;;;;;;10.30;2.10;;;16.60;99.90;;;;;;4955005;28;20042;-77
2022/10/01 12:43:41;;;;;;;8.18;1.73;;;17.10;99.90;;;;;;4919342;28;20044;-77
2022/10/01 12:46:30;;;;;;;11.57;2.50;;;17.50;99.90;;;;;;4957866;28;20101;-77
2022/10/01 12:49:21;;;;;;;24.38;3.75;;;17.90;99.90;;;;;;4957083;28;20125;-78
2022/10/01 12:52:14;;;;;;;30.23;3.47;;;18.40;99.90;;;;;;4941548;28;20074;-80
2022/10/01 12:54:43;;;;;;;15.15;2.40;;;19.10;99.90;;;;;;4955705;28;20035;-80
2022/10/01 12:57:18;;;;;;;13.25;2.63;;;19.70;99.90;;;;;;4954234;28;20133;-81
2022/10/01 12:59:46;;;;;;;17.27;2.55;;;20.10;99.90;;;;;;4931741;28;20049;-73
2022/10/01 13:02:40;;;;;;;9.80;2.30;;;20.40;99.90;;;;;;4952881;28;20044;-82
2022/10/01 13:05:24;;;;;;;10.23;2.00;;;20.80;99.90;;;;;;4922787;28;20042;-73
2022/10/01 13:08:19;;;;;;;8.98;2.15;;;21.10;99.90;;;;;;4947854;28;20071;-74
2022/10/01 13:11:12;;;;;;;11.55;2.72;;;21.50;99.90;;;;;;4943753;28;20163;-79